sensor_id;sensor_type;location;lat;lon;timestamp;P1;durP1;ratioP1;P2;durP2;ratioP2
33696;SDS011;20031;43.416;23.232;2024-01-30T00:01:41;5.50;;;4.68;;
33696;SDS011;20031;43.416;23.232;2024-01-30T00:04:06;5.45;;;4.53;;
33696;SDS011;20031;43.416;23.232;2024-01-30T00:06:32;5.07;;;4.43;;
33696;SDS011;20031;43.416;23.232;2024-01-30T00:08:57;5.20;;;4.60;;
33696;SDS011;20031;43.416;23.232;2024-01-30T00:11:23;6.28;;;4.80;;
33696;SDS011;20031;43.416;23.232;2024-01-30T00:13:50;5.00;;;4.40;;
33696;SDS011;20031;43.416;23.232;2024-01-30T00:16:20;4.93;;;4.43;;
33696;SDS011;20031;43.416;23.232;2024-01-30T00:18:47;5.93;;;4.90;;
33696;SDS011;20031;43.416;23.232;2024-01-30T00:21:12;5.40;;;4.88;;
33696;SDS011;20031;43.416;23.232;2024-01-30T00:23:38;6.07;;;4.90;;
33696;SDS011;20031;43.416;23.232;2024-01-30T00:26:03;7.82;;;4.70;;
33696;SDS011;20031;43.416;23.232;2024-01-30T00:28:30;5.53;;;4.75;;
33696;SDS011;20031;43.416;23.232;2024-01-30T00:30:55;5.95;;;5.00;;
33696;SDS011;20031;43.416;23.232;2024-01-30T00:33:21;8.18;;;4.82;;
33696;SDS011;20031;43.416;23.232;2024-01-30T00:35:47;5.40;;;4.30;;
33696;SDS011;20031;43.416;23.232;2024-01-30T00:38:12;5.07;;;4.38;;
33696;SDS011;20031;43.416;23.232;2024-01-30T00:40:37;5.03;;;4.47;;
33696;SDS011;20031;43.416;23.232;2024-01-30T00:43:03;6.13;;;4.70;;
33696;SDS011;20031;43.416;23.232;2024-01-30T00:45:29;6.90;;;4.80;;
33696;SDS011;20031;43.416;23.232;2024-01-30T00:47:54;5.85;;;5.00;;
33696;SDS011;20031;43.416;23.232;2024-01-30T00:50:19;6.00;;;5.30;;
33696;SDS011;20031;43.416;23.232;2024-01-30T00:52:45;6.22;;;5.20;;
33696;SDS011;20031;43.416;23.232;2024-01-30T00:55:10;6.32;;;5.15;;
33696;SDS011;20031;43.416;23.232;2024-01-30T00:57:36;5.10;;;4.60;;
33696;SDS011;20031;43.416;23.232;2024-01-30T01:00:02;5.55;;;4.75;;
33696;SDS011;20031;43.416;23.232;2024-01-30T01:02:28;6.70;;;5.80;;
33696;SDS011;20031;43.416;23.232;2024-01-30T01:04:53;6.28;;;5.20;;
33696;SDS011;20031;43.416;23.232;2024-01-30T01:07:19;6.20;;;5.05;;
33696;SDS011;20031;43.416;23.232;2024-01-30T01:09:44;5.63;;;4.90;;
33696;SDS011;20031;43.416;23.232;2024-01-30T01:12:10;5.72;;;5.13;;
33696;SDS011;20031;43.416;23.232;2024-01-30T01:14:35;6.15;;;5.03;;
33696;SDS011;20031;43.416;23.232;2024-01-30T01:17:01;5.57;;;5.00;;
33696;SDS011;20031;43.416;23.232;2024-01-30T01:19:26;5.40;;;4.90;;
33696;SDS011;20031;43.416;23.232;2024-01-30T01:21:52;5.70;;;4.70;;
33696;SDS011;20031;43.416;23.232;2024-01-30T01:24:18;6.72;;;4.97;;
33696;SDS011;20031;43.416;23.232;2024-01-30T01:26:43;6.22;;;5.20;;
33696;SDS011;20031;43.416;23.232;2024-01-30T01:29:09;5.95;;;5.30;;
33696;SDS011;20031;43.416;23.232;2024-01-30T01:31:37;6.18;;;5.20;;
33696;SDS011;20031;43.416;23.232;2024-01-30T01:34:09;6.18;;;4.97;;
33696;SDS011;20031;43.416;23.232;2024-01-30T01:36:38;6.18;;;5.25;;
33696;SDS011;20031;43.416;23.232;2024-01-30T01:39:04;6.40;;;5.60;;
33696;SDS011;20031;43.416;23.232;2024-01-30T01:41:32;7.25;;;5.50;;
33696;SDS011;20031;43.416;23.232;2024-01-30T01:43:58;7.93;;;5.80;;
33696;SDS011;20031;43.416;23.232;2024-01-30T01:46:27;7.38;;;5.43;;
33696;SDS011;20031;43.416;23.232;2024-01-30T01:48:57;6.95;;;5.43;;
33696;SDS011;20031;43.416;23.232;2024-01-30T01:51:23;6.43;;;5.60;;
33696;SDS011;20031;43.416;23.232;2024-01-30T01:53:52;7.60;;;5.78;;
33696;SDS011;20031;43.416;23.232;2024-01-30T01:56:25;6.68;;;5.13;;
33696;SDS011;20031;43.416;23.232;2024-01-30T01:58:52;5.50;;;4.90;;
33696;SDS011;20031;43.416;23.232;2024-01-30T02:01:19;5.78;;;4.68;;
33696;SDS011;20031;43.416;23.232;2024-01-30T02:03:46;5.68;;;5.03;;
33696;SDS011;20031;43.416;23.232;2024-01-30T02:06:12;8.30;;;4.85;;
33696;SDS011;20031;43.416;23.232;2024-01-30T02:08:38;6.93;;;4.65;;
33696;SDS011;20031;43.416;23.232;2024-01-30T02:11:04;6.07;;;4.72;;
33696;SDS011;20031;43.416;23.232;2024-01-30T02:13:30;8.15;;;5.10;;
33696;SDS011;20031;43.416;23.232;2024-01-30T02:15:55;13.68;;;5.32;;
33696;SDS011;20031;43.416;23.232;2024-01-30T02:18:21;6.82;;;5.63;;
33696;SDS011;20031;43.416;23.232;2024-01-30T02:20:46;7.93;;;5.78;;
33696;SDS011;20031;43.416;23.232;2024-01-30T02:23:12;7.82;;;5.90;;
33696;SDS011;20031;43.416;23.232;2024-01-30T02:25:40;7.60;;;5.90;;
33696;SDS011;20031;43.416;23.232;2024-01-30T02:28:15;7.25;;;5.65;;
33696;SDS011;20031;43.416;23.232;2024-01-30T02:30:42;7.47;;;5.63;;
33696;SDS011;20031;43.416;23.232;2024-01-30T02:33:08;9.25;;;5.78;;
33696;SDS011;20031;43.416;23.232;2024-01-30T02:35:34;7.53;;;5.13;;
33696;SDS011;20031;43.416;23.232;2024-01-30T02:38:00;7.88;;;5.93;;
33696;SDS011;20031;43.416;23.232;2024-01-30T02:40:25;9.48;;;6.40;;
33696;SDS011;20031;43.416;23.232;2024-01-30T02:42:51;7.63;;;6.28;;
33696;SDS011;20031;43.416;23.232;2024-01-30T02:45:16;8.98;;;6.35;;
33696;SDS011;20031;43.416;23.232;2024-01-30T02:47:42;7.85;;;6.22;;
33696;SDS011;20031;43.416;23.232;2024-01-30T02:50:08;7.55;;;5.90;;
33696;SDS011;20031;43.416;23.232;2024-01-30T02:52:33;12.52;;;6.00;;
33696;SDS011;20031;43.416;23.232;2024-01-30T02:54:59;7.53;;;5.90;;
33696;SDS011;20031;43.416;23.232;2024-01-30T02:57:25;8.57;;;5.68;;
33696;SDS011;20031;43.416;23.232;2024-01-30T02:59:50;7.95;;;5.90;;
33696;SDS011;20031;43.416;23.232;2024-01-30T03:02:16;7.75;;;5.90;;
33696;SDS011;20031;43.416;23.232;2024-01-30T03:04:41;7.05;;;5.55;;
33696;SDS011;20031;43.416;23.232;2024-01-30T03:07:07;9.02;;;5.53;;
33696;SDS011;20031;43.416;23.232;2024-01-30T03:09:33;6.18;;;5.15;;
33696;SDS011;20031;43.416;23.232;2024-01-30T03:11:58;5.70;;;4.95;;
33696;SDS011;20031;43.416;23.232;2024-01-30T03:14:24;6.68;;;5.07;;
33696;SDS011;20031;43.416;23.232;2024-01-30T03:16:49;8.75;;;5.28;;
33696;SDS011;20031;43.416;23.232;2024-01-30T03:19:15;5.50;;;4.68;;
33696;SDS011;20031;43.416;23.232;2024-01-30T03:21:40;5.10;;;4.57;;
33696;SDS011;20031;43.416;23.232;2024-01-30T03:24:06;10.27;;;5.45;;
33696;SDS011;20031;43.416;23.232;2024-01-30T03:26:31;8.20;;;4.88;;
33696;SDS011;20031;43.416;23.232;2024-01-30T03:28:57;9.57;;;4.53;;
33696;SDS011;20031;43.416;23.232;2024-01-30T03:31:22;6.90;;;5.13;;
33696;SDS011;20031;43.416;23.232;2024-01-30T03:33:48;7.05;;;5.03;;
33696;SDS011;20031;43.416;23.232;2024-01-30T03:36:15;6.45;;;5.13;;
33696;SDS011;20031;43.416;23.232;2024-01-30T03:38:41;6.30;;;5.30;;
33696;SDS011;20031;43.416;23.232;2024-01-30T03:41:09;6.72;;;4.95;;
33696;SDS011;20031;43.416;23.232;2024-01-30T03:43:35;5.65;;;4.85;;
33696;SDS011;20031;43.416;23.232;2024-01-30T03:46:01;6.18;;;4.75;;
33696;SDS011;20031;43.416;23.232;2024-01-30T03:48:28;6.05;;;4.97;;
33696;SDS011;20031;43.416;23.232;2024-01-30T03:50:53;8.27;;;4.97;;
33696;SDS011;20031;43.416;23.232;2024-01-30T03:53:19;6.80;;;5.30;;
33696;SDS011;20031;43.416;23.232;2024-01-30T03:55:44;6.72;;;5.38;;
33696;SDS011;20031;43.416;23.232;2024-01-30T03:58:10;6.55;;;4.97;;
33696;SDS011;20031;43.416;23.232;2024-01-30T04:00:35;5.82;;;4.95;;
33696;SDS011;20031;43.416;23.232;2024-01-30T04:03:01;5.60;;;5.00;;
33696;SDS011;20031;43.416;23.232;2024-01-30T04:05:26;6.70;;;4.90;;
33696;SDS011;20031;43.416;23.232;2024-01-30T04:07:51;8.82;;;4.95;;
33696;SDS011;20031;43.416;23.232;2024-01-30T04:10:17;9.82;;;4.57;;
33696;SDS011;20031;43.416;23.232;2024-01-30T04:12:42;6.88;;;4.90;;
33696;SDS011;20031;43.416;23.232;2024-01-30T04:15:08;5.78;;;4.88;;
33696;SDS011;20031;43.416;23.232;2024-01-30T04:17:33;5.55;;;4.78;;
33696;SDS011;20031;43.416;23.232;2024-01-30T04:19:59;5.53;;;4.90;;
33696;SDS011;20031;43.416;23.232;2024-01-30T04:22:24;9.02;;;5.63;;
33696;SDS011;20031;43.416;23.232;2024-01-30T04:24:50;12.57;;;5.90;;
33696;SDS011;20031;43.416;23.232;2024-01-30T04:27:15;11.38;;;6.55;;
33696;SDS011;20031;43.416;23.232;2024-01-30T04:29:41;12.90;;;7.47;;
33696;SDS011;20031;43.416;23.232;2024-01-30T04:32:06;12.63;;;7.70;;
33696;SDS011;20031;43.416;23.232;2024-01-30T04:34:32;8.20;;;6.05;;
33696;SDS011;20031;43.416;23.232;2024-01-30T04:36:57;7.47;;;5.55;;
33696;SDS011;20031;43.416;23.232;2024-01-30T04:39:23;12.85;;;7.35;;
33696;SDS011;20031;43.416;23.232;2024-01-30T04:41:48;8.63;;;6.13;;
33696;SDS011;20031;43.416;23.232;2024-01-30T04:44:14;8.30;;;6.03;;
33696;SDS011;20031;43.416;23.232;2024-01-30T04:46:39;9.50;;;7.43;;
33696;SDS011;20031;43.416;23.232;2024-01-30T04:49:05;11.68;;;7.88;;
33696;SDS011;20031;43.416;23.232;2024-01-30T04:51:32;10.63;;;7.47;;
33696;SDS011;20031;43.416;23.232;2024-01-30T04:53:58;17.08;;;8.35;;
33696;SDS011;20031;43.416;23.232;2024-01-30T04:56:24;9.05;;;6.38;;
33696;SDS011;20031;43.416;23.232;2024-01-30T04:58:49;9.80;;;6.40;;
33696;SDS011;20031;43.416;23.232;2024-01-30T05:01:18;12.05;;;6.50;;
33696;SDS011;20031;43.416;23.232;2024-01-30T05:03:44;9.18;;;6.15;;
33696;SDS011;20031;43.416;23.232;2024-01-30T05:06:09;12.60;;;8.00;;
33696;SDS011;20031;43.416;23.232;2024-01-30T05:08:35;20.17;;;11.23;;
33696;SDS011;20031;43.416;23.232;2024-01-30T05:11:04;25.80;;;12.38;;
33696;SDS011;20031;43.416;23.232;2024-01-30T05:13:31;16.48;;;9.10;;
33696;SDS011;20031;43.416;23.232;2024-01-30T05:15:56;16.42;;;8.48;;
33696;SDS011;20031;43.416;23.232;2024-01-30T05:18:22;15.02;;;9.45;;
33696;SDS011;20031;43.416;23.232;2024-01-30T05:20:48;17.83;;;10.45;;
33696;SDS011;20031;43.416;23.232;2024-01-30T05:23:15;15.27;;;6.93;;
33696;SDS011;20031;43.416;23.232;2024-01-30T05:25:40;12.98;;;8.23;;
33696;SDS011;20031;43.416;23.232;2024-01-30T05:28:05;20.92;;;10.52;;
33696;SDS011;20031;43.416;23.232;2024-01-30T05:30:31;59.40;;;35.72;;
33696;SDS011;20031;43.416;23.232;2024-01-30T05:32:56;29.27;;;16.52;;
33696;SDS011;20031;43.416;23.232;2024-01-30T05:35:22;33.83;;;13.40;;
33696;SDS011;20031;43.416;23.232;2024-01-30T05:37:48;24.90;;;12.68;;
33696;SDS011;20031;43.416;23.232;2024-01-30T05:40:14;29.88;;;12.98;;
33696;SDS011;20031;43.416;23.232;2024-01-30T05:42:39;36.22;;;15.98;;
33696;SDS011;20031;43.416;23.232;2024-01-30T05:45:05;22.58;;;14.15;;
33696;SDS011;20031;43.416;23.232;2024-01-30T05:47:31;46.80;;;21.33;;
33696;SDS011;20031;43.416;23.232;2024-01-30T05:49:56;41.85;;;19.52;;
33696;SDS011;20031;43.416;23.232;2024-01-30T05:52:22;45.58;;;26.05;;
33696;SDS011;20031;43.416;23.232;2024-01-30T05:54:47;38.72;;;17.98;;
33696;SDS011;20031;43.416;23.232;2024-01-30T05:57:12;40.00;;;17.40;;
33696;SDS011;20031;43.416;23.232;2024-01-30T05:59:38;31.75;;;16.83;;
33696;SDS011;20031;43.416;23.232;2024-01-30T06:02:03;33.83;;;16.30;;
33696;SDS011;20031;43.416;23.232;2024-01-30T06:04:29;35.90;;;17.63;;
33696;SDS011;20031;43.416;23.232;2024-01-30T06:06:54;24.38;;;14.73;;
33696;SDS011;20031;43.416;23.232;2024-01-30T06:09:20;20.45;;;13.98;;
33696;SDS011;20031;43.416;23.232;2024-01-30T06:11:45;20.77;;;14.70;;
33696;SDS011;20031;43.416;23.232;2024-01-30T06:14:11;32.95;;;18.67;;
33696;SDS011;20031;43.416;23.232;2024-01-30T06:16:36;31.33;;;16.90;;
33696;SDS011;20031;43.416;23.232;2024-01-30T06:19:02;28.52;;;17.08;;
33696;SDS011;20031;43.416;23.232;2024-01-30T06:21:27;31.15;;;17.98;;
33696;SDS011;20031;43.416;23.232;2024-01-30T06:23:53;28.55;;;16.42;;
33696;SDS011;20031;43.416;23.232;2024-01-30T06:26:18;27.52;;;14.63;;
33696;SDS011;20031;43.416;23.232;2024-01-30T06:28:44;26.35;;;14.20;;
33696;SDS011;20031;43.416;23.232;2024-01-30T06:31:09;53.90;;;32.10;;
33696;SDS011;20031;43.416;23.232;2024-01-30T06:33:35;41.50;;;21.70;;
33696;SDS011;20031;43.416;23.232;2024-01-30T06:36:00;44.03;;;21.60;;
33696;SDS011;20031;43.416;23.232;2024-01-30T06:38:25;45.00;;;24.42;;
33696;SDS011;20031;43.416;23.232;2024-01-30T06:40:51;33.58;;;18.80;;
33696;SDS011;20031;43.416;23.232;2024-01-30T06:43:16;37.15;;;18.42;;
33696;SDS011;20031;43.416;23.232;2024-01-30T06:45:42;39.17;;;18.02;;
33696;SDS011;20031;43.416;23.232;2024-01-30T06:48:07;34.22;;;17.95;;
33696;SDS011;20031;43.416;23.232;2024-01-30T06:50:33;38.42;;;18.90;;
33696;SDS011;20031;43.416;23.232;2024-01-30T06:52:58;52.03;;;23.35;;
33696;SDS011;20031;43.416;23.232;2024-01-30T06:55:24;46.17;;;20.63;;
33696;SDS011;20031;43.416;23.232;2024-01-30T06:57:49;34.22;;;17.48;;
33696;SDS011;20031;43.416;23.232;2024-01-30T07:00:15;36.05;;;17.77;;
33696;SDS011;20031;43.416;23.232;2024-01-30T07:02:41;31.08;;;18.20;;
33696;SDS011;20031;43.416;23.232;2024-01-30T07:05:06;30.02;;;19.80;;
33696;SDS011;20031;43.416;23.232;2024-01-30T07:07:32;34.75;;;21.00;;
33696;SDS011;20031;43.416;23.232;2024-01-30T07:09:58;32.95;;;20.00;;
33696;SDS011;20031;43.416;23.232;2024-01-30T07:12:23;32.95;;;20.65;;
33696;SDS011;20031;43.416;23.232;2024-01-30T07:14:50;41.42;;;19.00;;
33696;SDS011;20031;43.416;23.232;2024-01-30T07:17:16;38.00;;;18.05;;
33696;SDS011;20031;43.416;23.232;2024-01-30T07:19:42;26.08;;;12.95;;
33696;SDS011;20031;43.416;23.232;2024-01-30T07:22:07;19.70;;;11.68;;
33696;SDS011;20031;43.416;23.232;2024-01-30T07:24:33;25.88;;;12.93;;
33696;SDS011;20031;43.416;23.232;2024-01-30T07:26:59;26.83;;;17.05;;
33696;SDS011;20031;43.416;23.232;2024-01-30T07:29:24;22.00;;;13.70;;
33696;SDS011;20031;43.416;23.232;2024-01-30T07:31:50;19.42;;;13.10;;
33696;SDS011;20031;43.416;23.232;2024-01-30T07:34:15;21.38;;;12.98;;
33696;SDS011;20031;43.416;23.232;2024-01-30T07:36:41;20.45;;;14.93;;
33696;SDS011;20031;43.416;23.232;2024-01-30T07:39:06;22.52;;;13.50;;
33696;SDS011;20031;43.416;23.232;2024-01-30T07:41:32;23.75;;;13.10;;
33696;SDS011;20031;43.416;23.232;2024-01-30T07:43:58;25.63;;;12.52;;
33696;SDS011;20031;43.416;23.232;2024-01-30T07:46:23;20.38;;;12.40;;
33696;SDS011;20031;43.416;23.232;2024-01-30T07:48:48;22.13;;;12.70;;
33696;SDS011;20031;43.416;23.232;2024-01-30T07:51:14;18.02;;;11.10;;
33696;SDS011;20031;43.416;23.232;2024-01-30T07:53:39;22.15;;;11.38;;
33696;SDS011;20031;43.416;23.232;2024-01-30T07:56:06;19.02;;;11.13;;
33696;SDS011;20031;43.416;23.232;2024-01-30T07:58:32;17.30;;;11.32;;
33696;SDS011;20031;43.416;23.232;2024-01-30T08:00:57;17.00;;;10.50;;
33696;SDS011;20031;43.416;23.232;2024-01-30T08:03:23;22.13;;;11.02;;
33696;SDS011;20031;43.416;23.232;2024-01-30T08:05:49;26.50;;;12.93;;
33696;SDS011;20031;43.416;23.232;2024-01-30T08:08:15;16.38;;;10.63;;
33696;SDS011;20031;43.416;23.232;2024-01-30T08:10:40;14.68;;;10.23;;
33696;SDS011;20031;43.416;23.232;2024-01-30T08:13:06;16.50;;;10.05;;
33696;SDS011;20031;43.416;23.232;2024-01-30T08:15:31;19.95;;;10.38;;
33696;SDS011;20031;43.416;23.232;2024-01-30T08:17:57;21.77;;;16.20;;
33696;SDS011;20031;43.416;23.232;2024-01-30T08:20:24;22.15;;;12.73;;
33696;SDS011;20031;43.416;23.232;2024-01-30T08:22:50;21.63;;;12.52;;
33696;SDS011;20031;43.416;23.232;2024-01-30T08:25:16;24.05;;;12.52;;
33696;SDS011;20031;43.416;23.232;2024-01-30T08:27:41;26.67;;;13.55;;
33696;SDS011;20031;43.416;23.232;2024-01-30T08:30:07;22.10;;;12.65;;
33696;SDS011;20031;43.416;23.232;2024-01-30T08:32:33;23.10;;;14.13;;
33696;SDS011;20031;43.416;23.232;2024-01-30T08:34:59;25.65;;;13.13;;
33696;SDS011;20031;43.416;23.232;2024-01-30T08:37:24;25.27;;;14.63;;
33696;SDS011;20031;43.416;23.232;2024-01-30T08:39:50;33.72;;;15.05;;
33696;SDS011;20031;43.416;23.232;2024-01-30T08:42:15;22.05;;;13.70;;
33696;SDS011;20031;43.416;23.232;2024-01-30T08:44:43;17.27;;;11.40;;
33696;SDS011;20031;43.416;23.232;2024-01-30T08:47:09;17.33;;;12.07;;
33696;SDS011;20031;43.416;23.232;2024-01-30T08:49:34;27.63;;;13.93;;
33696;SDS011;20031;43.416;23.232;2024-01-30T08:52:00;26.63;;;12.60;;
33696;SDS011;20031;43.416;23.232;2024-01-30T08:54:25;23.38;;;12.82;;
33696;SDS011;20031;43.416;23.232;2024-01-30T08:56:50;20.42;;;11.27;;
33696;SDS011;20031;43.416;23.232;2024-01-30T08:59:18;14.05;;;9.45;;
33696;SDS011;20031;43.416;23.232;2024-01-30T09:01:44;16.42;;;10.95;;
33696;SDS011;20031;43.416;23.232;2024-01-30T09:04:09;13.57;;;8.68;;
33696;SDS011;20031;43.416;23.232;2024-01-30T09:06:34;14.15;;;7.78;;
33696;SDS011;20031;43.416;23.232;2024-01-30T09:09:00;12.18;;;7.53;;
33696;SDS011;20031;43.416;23.232;2024-01-30T09:11:26;11.02;;;7.18;;
33696;SDS011;20031;43.416;23.232;2024-01-30T09:13:51;9.10;;;6.85;;
33696;SDS011;20031;43.416;23.232;2024-01-30T09:16:16;11.88;;;6.70;;
33696;SDS011;20031;43.416;23.232;2024-01-30T09:18:42;14.23;;;9.40;;
33696;SDS011;20031;43.416;23.232;2024-01-30T09:21:07;8.18;;;6.38;;
33696;SDS011;20031;43.416;23.232;2024-01-30T09:23:33;7.00;;;6.10;;
33696;SDS011;20031;43.416;23.232;2024-01-30T09:25:58;8.15;;;6.05;;
33696;SDS011;20031;43.416;23.232;2024-01-30T09:28:24;9.32;;;6.15;;
33696;SDS011;20031;43.416;23.232;2024-01-30T09:30:50;9.13;;;7.07;;
33696;SDS011;20031;43.416;23.232;2024-01-30T09:33:15;7.47;;;5.20;;
33696;SDS011;20031;43.416;23.232;2024-01-30T09:35:41;6.25;;;5.20;;
33696;SDS011;20031;43.416;23.232;2024-01-30T09:38:06;5.78;;;4.90;;
33696;SDS011;20031;43.416;23.232;2024-01-30T09:40:32;9.02;;;5.15;;
33696;SDS011;20031;43.416;23.232;2024-01-30T09:42:58;7.88;;;5.65;;
33696;SDS011;20031;43.416;23.232;2024-01-30T09:45:26;9.00;;;4.80;;
33696;SDS011;20031;43.416;23.232;2024-01-30T09:47:52;13.13;;;5.97;;
33696;SDS011;20031;43.416;23.232;2024-01-30T09:50:18;6.70;;;4.40;;
33696;SDS011;20031;43.416;23.232;2024-01-30T09:52:47;5.50;;;4.22;;
33696;SDS011;20031;43.416;23.232;2024-01-30T09:55:13;5.40;;;3.20;;
33696;SDS011;20031;43.416;23.232;2024-01-30T09:57:39;3.10;;;2.47;;
33696;SDS011;20031;43.416;23.232;2024-01-30T10:00:05;2.80;;;2.60;;
33696;SDS011;20031;43.416;23.232;2024-01-30T10:02:33;8.05;;;3.33;;
33696;SDS011;20031;43.416;23.232;2024-01-30T10:04:59;3.65;;;2.65;;
33696;SDS011;20031;43.416;23.232;2024-01-30T10:07:25;4.40;;;3.00;;
33696;SDS011;20031;43.416;23.232;2024-01-30T10:09:51;5.68;;;3.13;;
33696;SDS011;20031;43.416;23.232;2024-01-30T10:12:18;10.45;;;3.20;;
33696;SDS011;20031;43.416;23.232;2024-01-30T10:14:44;4.57;;;3.30;;
33696;SDS011;20031;43.416;23.232;2024-01-30T10:17:09;4.57;;;3.10;;
33696;SDS011;20031;43.416;23.232;2024-01-30T10:19:36;2.80;;;2.50;;
33696;SDS011;20031;43.416;23.232;2024-01-30T10:22:03;4.10;;;3.17;;
33696;SDS011;20031;43.416;23.232;2024-01-30T10:24:29;5.78;;;3.20;;
33696;SDS011;20031;43.416;23.232;2024-01-30T10:26:54;4.68;;;3.42;;
33696;SDS011;20031;43.416;23.232;2024-01-30T10:29:20;7.97;;;3.47;;
33696;SDS011;20031;43.416;23.232;2024-01-30T10:31:57;5.53;;;3.70;;
33696;SDS011;20031;43.416;23.232;2024-01-30T10:34:31;5.38;;;3.47;;
33696;SDS011;20031;43.416;23.232;2024-01-30T10:37:18;6.85;;;3.47;;
33696;SDS011;20031;43.416;23.232;2024-01-30T10:42:14;3.47;;;3.10;;
33696;SDS011;20031;43.416;23.232;2024-01-30T10:47:37;3.88;;;3.10;;
33696;SDS011;20031;43.416;23.232;2024-01-30T10:50:05;3.20;;;2.90;;
33696;SDS011;20031;43.416;23.232;2024-01-30T10:52:32;3.55;;;2.90;;
33696;SDS011;20031;43.416;23.232;2024-01-30T10:54:58;2.83;;;2.58;;
33696;SDS011;20031;43.416;23.232;2024-01-30T10:57:25;3.17;;;2.88;;
33696;SDS011;20031;43.416;23.232;2024-01-30T10:59:55;2.88;;;2.67;;
33696;SDS011;20031;43.416;23.232;2024-01-30T11:02:23;2.80;;;2.60;;
33696;SDS011;20031;43.416;23.232;2024-01-30T11:04:49;3.13;;;2.83;;
33696;SDS011;20031;43.416;23.232;2024-01-30T11:07:23;3.25;;;2.60;;
33696;SDS011;20031;43.416;23.232;2024-01-30T11:09:50;3.25;;;2.95;;
33696;SDS011;20031;43.416;23.232;2024-01-30T11:12:21;3.95;;;3.00;;
33696;SDS011;20031;43.416;23.232;2024-01-30T11:14:48;3.25;;;2.95;;
33696;SDS011;20031;43.416;23.232;2024-01-30T11:17:13;3.30;;;3.00;;
33696;SDS011;20031;43.416;23.232;2024-01-30T11:19:39;5.95;;;2.90;;
33696;SDS011;20031;43.416;23.232;2024-01-30T11:22:07;4.78;;;2.95;;
33696;SDS011;20031;43.416;23.232;2024-01-30T11:24:39;5.13;;;3.28;;
33696;SDS011;20031;43.416;23.232;2024-01-30T11:27:09;7.25;;;3.67;;
33696;SDS011;20031;43.416;23.232;2024-01-30T11:29:37;8.38;;;4.95;;
33696;SDS011;20031;43.416;23.232;2024-01-30T11:32:03;7.65;;;4.15;;
33696;SDS011;20031;43.416;23.232;2024-01-30T11:34:29;16.20;;;4.07;;
33696;SDS011;20031;43.416;23.232;2024-01-30T11:37:03;9.30;;;4.00;;
33696;SDS011;20031;43.416;23.232;2024-01-30T11:39:34;4.53;;;3.38;;
33696;SDS011;20031;43.416;23.232;2024-01-30T11:42:01;6.55;;;3.22;;
33696;SDS011;20031;43.416;23.232;2024-01-30T11:44:30;8.43;;;3.55;;
33696;SDS011;20031;43.416;23.232;2024-01-30T11:46:55;6.63;;;4.40;;
33696;SDS011;20031;43.416;23.232;2024-01-30T11:49:21;9.35;;;4.25;;
33696;SDS011;20031;43.416;23.232;2024-01-30T11:51:48;5.05;;;3.40;;
33696;SDS011;20031;43.416;23.232;2024-01-30T11:54:14;6.00;;;3.25;;
33696;SDS011;20031;43.416;23.232;2024-01-30T11:56:41;5.72;;;3.15;;
33696;SDS011;20031;43.416;23.232;2024-01-30T11:59:08;3.30;;;2.90;;
33696;SDS011;20031;43.416;23.232;2024-01-30T12:01:33;3.67;;;2.60;;
33696;SDS011;20031;43.416;23.232;2024-01-30T12:03:59;5.90;;;3.40;;
33696;SDS011;20031;43.416;23.232;2024-01-30T12:06:25;11.80;;;3.10;;
33696;SDS011;20031;43.416;23.232;2024-01-30T12:08:57;5.35;;;2.95;;
33696;SDS011;20031;43.416;23.232;2024-01-30T12:11:24;8.77;;;2.90;;
33696;SDS011;20031;43.416;23.232;2024-01-30T12:13:49;3.33;;;2.80;;
33696;SDS011;20031;43.416;23.232;2024-01-30T12:16:16;5.25;;;3.00;;
33696;SDS011;20031;43.416;23.232;2024-01-30T12:18:42;4.43;;;3.20;;
33696;SDS011;20031;43.416;23.232;2024-01-30T12:21:07;8.98;;;3.28;;
33696;SDS011;20031;43.416;23.232;2024-01-30T12:23:34;4.25;;;2.83;;
33696;SDS011;20031;43.416;23.232;2024-01-30T12:26:00;6.18;;;3.25;;
33696;SDS011;20031;43.416;23.232;2024-01-30T12:28:28;3.45;;;2.80;;
33696;SDS011;20031;43.416;23.232;2024-01-30T12:31:00;4.90;;;4.10;;
33696;SDS011;20031;43.416;23.232;2024-01-30T12:33:26;7.00;;;4.70;;
33696;SDS011;20031;43.416;23.232;2024-01-30T12:35:53;8.48;;;3.70;;
33696;SDS011;20031;43.416;23.232;2024-01-30T12:38:19;3.35;;;3.05;;
33696;SDS011;20031;43.416;23.232;2024-01-30T12:40:44;5.40;;;3.10;;
33696;SDS011;20031;43.416;23.232;2024-01-30T12:43:10;14.60;;;3.50;;
33696;SDS011;20031;43.416;23.232;2024-01-30T12:45:36;3.45;;;3.00;;
33696;SDS011;20031;43.416;23.232;2024-01-30T12:48:01;3.40;;;3.10;;
33696;SDS011;20031;43.416;23.232;2024-01-30T12:50:27;4.18;;;3.63;;
33696;SDS011;20031;43.416;23.232;2024-01-30T12:52:53;4.25;;;2.97;;
33696;SDS011;20031;43.416;23.232;2024-01-30T12:55:18;3.10;;;2.80;;
33696;SDS011;20031;43.416;23.232;2024-01-30T12:57:43;6.68;;;2.90;;
33696;SDS011;20031;43.416;23.232;2024-01-30T13:00:09;3.08;;;2.78;;
33696;SDS011;20031;43.416;23.232;2024-01-30T13:02:35;3.25;;;2.78;;
33696;SDS011;20031;43.416;23.232;2024-01-30T13:05:04;3.25;;;2.95;;
33696;SDS011;20031;43.416;23.232;2024-01-30T13:07:30;3.22;;;2.92;;
33696;SDS011;20031;43.416;23.232;2024-01-30T13:09:56;3.97;;;2.80;;
33696;SDS011;20031;43.416;23.232;2024-01-30T13:12:27;4.40;;;3.03;;
33696;SDS011;20031;43.416;23.232;2024-01-30T13:14:53;5.03;;;2.95;;
33696;SDS011;20031;43.416;23.232;2024-01-30T13:17:19;6.63;;;3.63;;
33696;SDS011;20031;43.416;23.232;2024-01-30T13:19:45;16.38;;;3.58;;
33696;SDS011;20031;43.416;23.232;2024-01-30T13:22:10;4.35;;;2.90;;
33696;SDS011;20031;43.416;23.232;2024-01-30T13:24:36;3.33;;;2.90;;
33696;SDS011;20031;43.416;23.232;2024-01-30T13:27:01;5.68;;;3.30;;
33696;SDS011;20031;43.416;23.232;2024-01-30T13:29:27;8.43;;;3.42;;
33696;SDS011;20031;43.416;23.232;2024-01-30T13:31:52;4.25;;;3.08;;
33696;SDS011;20031;43.416;23.232;2024-01-30T13:34:18;3.85;;;3.22;;
33696;SDS011;20031;43.416;23.232;2024-01-30T13:36:43;3.10;;;2.78;;
33696;SDS011;20031;43.416;23.232;2024-01-30T13:39:09;8.70;;;3.20;;
33696;SDS011;20031;43.416;23.232;2024-01-30T13:41:37;3.30;;;3.00;;
33696;SDS011;20031;43.416;23.232;2024-01-30T13:44:03;3.47;;;3.15;;
33696;SDS011;20031;43.416;23.232;2024-01-30T13:46:29;5.93;;;3.28;;
33696;SDS011;20031;43.416;23.232;2024-01-30T13:48:55;3.53;;;3.22;;
33696;SDS011;20031;43.416;23.232;2024-01-30T13:51:21;4.53;;;3.22;;
33696;SDS011;20031;43.416;23.232;2024-01-30T13:53:46;3.65;;;3.35;;
33696;SDS011;20031;43.416;23.232;2024-01-30T13:56:12;9.50;;;3.60;;
33696;SDS011;20031;43.416;23.232;2024-01-30T13:58:37;4.32;;;3.00;;
33696;SDS011;20031;43.416;23.232;2024-01-30T14:01:03;5.90;;;3.30;;
33696;SDS011;20031;43.416;23.232;2024-01-30T14:03:28;4.97;;;3.55;;
33696;SDS011;20031;43.416;23.232;2024-01-30T14:05:54;5.65;;;3.50;;
33696;SDS011;20031;43.416;23.232;2024-01-30T14:08:19;6.88;;;3.55;;
33696;SDS011;20031;43.416;23.232;2024-01-30T14:10:46;5.72;;;3.40;;
33696;SDS011;20031;43.416;23.232;2024-01-30T14:13:12;4.47;;;3.50;;
33696;SDS011;20031;43.416;23.232;2024-01-30T14:15:38;5.80;;;3.90;;
33696;SDS011;20031;43.416;23.232;2024-01-30T14:18:03;5.15;;;3.70;;
33696;SDS011;20031;43.416;23.232;2024-01-30T14:20:30;6.47;;;4.03;;
33696;SDS011;20031;43.416;23.232;2024-01-30T14:22:56;4.10;;;3.70;;
33696;SDS011;20031;43.416;23.232;2024-01-30T14:25:21;4.97;;;3.60;;